Jenison, Michigan
Current Conditions -  °F | °C
As of 7:53 PM on Monday 22 Dec 2014 (Local Time) from KGRR Reporting Station
Light Rain Light Rain  
Wind Chill: 25°   Ceiling: 4400
Heat Index: 35°   Visibility: 4mi
Dew Point: 32°   Wind: 16mph
Humidity: 89%   Direction: 100°E
Pressure: 29.84"   Gusts: NA
Location:  42.9°N, 85.78°W
Report Text: KGRR 230053Z 10014KT 4SM -RA BR FEW038 OVC044 02/00 A2984 RMK AO2 SLP112 P0002 T00170000
Loading
Personal Weather Stations






























Interactive Weather Map New forecast layout! Learn more

10-Day Weather Forecast

Advertisements
Track Severe Weather on mobile